sensor_id;sensor_type;location;lat;lon;timestamp;pressure;altitude;pressure_sealevel;temperature;humidity
49102;BME280;34913;47.520;19.186;2023-01-28T00:01:38;99929.22;;;1.46;84.47
49102;BME280;34913;47.520;19.186;2023-01-28T00:04:03;99923.41;;;1.39;84.59
49102;BME280;34913;47.520;19.186;2023-01-28T00:06:28;99927.72;;;1.40;84.71
49102;BME280;34913;47.520;19.186;2023-01-28T00:08:54;99924.06;;;1.44;84.41
49102;BME280;34913;47.520;19.186;2023-01-28T00:11:20;99924.06;;;1.44;84.23
49102;BME280;34913;47.520;19.186;2023-01-28T00:13:52;99932.66;;;1.46;84.03
49102;BME280;34913;47.520;19.186;2023-01-28T00:16:18;99931.63;;;1.50;84.28
49102;BME280;34913;47.520;19.186;2023-01-28T00:18:44;99930.28;;;1.60;83.53
49102;BME280;34913;47.520;19.186;2023-01-28T00:21:11;99933.50;;;1.65;83.59
49102;BME280;34913;47.520;19.186;2023-01-28T00:23:38;99928.81;;;1.72;83.78
49102;BME280;34913;47.520;19.186;2023-01-28T00:26:12;99941.34;;;1.65;82.98
49102;BME280;34913;47.520;19.186;2023-01-28T00:28:39;99939.81;;;1.61;83.49
49102;BME280;34913;47.520;19.186;2023-01-28T00:31:07;99939.81;;;1.61;83.78
49102;BME280;34913;47.520;19.186;2023-01-28T00:33:34;99939.59;;;1.66;83.93
49102;BME280;34913;47.520;19.186;2023-01-28T00:36:00;99936.84;;;1.69;83.86
49102;BME280;34913;47.520;19.186;2023-01-28T00:38:27;99940.97;;;1.73;83.64
49102;BME280;34913;47.520;19.186;2023-01-28T00:40:52;99943.25;;;1.81;83.04
49102;BME280;34913;47.520;19.186;2023-01-28T00:43:18;99943.97;;;1.84;82.81
49102;BME280;34913;47.520;19.186;2023-01-28T00:45:43;99946.41;;;1.87;82.24
49102;BME280;34913;47.520;19.186;2023-01-28T00:48:08;99947.59;;;1.82;81.11
49102;BME280;34913;47.520;19.186;2023-01-28T00:50:34;99949.19;;;1.84;81.59
49102;BME280;34913;47.520;19.186;2023-01-28T00:53:00;99948.22;;;1.68;80.93
49102;BME280;34913;47.520;19.186;2023-01-28T00:55:25;99951.81;;;1.65;81.50
49102;BME280;34913;47.520;19.186;2023-01-28T00:57:52;99947.38;;;1.67;81.55
49102;BME280;34913;47.520;19.186;2023-01-28T01:00:18;99947.38;;;1.67;82.15
49102;BME280;34913;47.520;19.186;2023-01-28T01:02:46;99950.84;;;1.68;82.32
49102;BME280;34913;47.520;19.186;2023-01-28T01:05:11;99949.84;;;1.71;82.11
49102;BME280;34913;47.520;19.186;2023-01-28T01:07:37;99950.69;;;1.71;82.53
49102;BME280;34913;47.520;19.186;2023-01-28T01:10:14;99954.22;;;1.70;81.47
49102;BME280;34913;47.520;19.186;2023-01-28T01:12:40;99952.28;;;1.74;81.50
49102;BME280;34913;47.520;19.186;2023-01-28T01:15:07;99950.31;;;1.79;81.10
49102;BME280;34913;47.520;19.186;2023-01-28T01:17:37;99952.81;;;1.82;80.17
49102;BME280;34913;47.520;19.186;2023-01-28T01:20:04;99952.16;;;1.77;79.80
49102;BME280;34913;47.520;19.186;2023-01-28T01:22:37;99949.00;;;1.70;79.51
49102;BME280;34913;47.520;19.186;2023-01-28T01:25:03;99954.22;;;1.70;79.48
49102;BME280;34913;47.520;19.186;2023-01-28T01:27:30;99957.41;;;1.58;79.54
49102;BME280;34913;47.520;19.186;2023-01-28T01:29:55;99960.44;;;1.49;79.92
49102;BME280;34913;47.520;19.186;2023-01-28T01:32:21;99960.09;;;1.37;80.10
49102;BME280;34913;47.520;19.186;2023-01-28T01:34:47;99954.13;;;1.34;80.45
49102;BME280;34913;47.520;19.186;2023-01-28T01:37:13;99960.59;;;1.27;81.21
49102;BME280;34913;47.520;19.186;2023-01-28T01:39:39;99958.81;;;1.27;81.03
49102;BME280;34913;47.520;19.186;2023-01-28T01:42:04;99968.00;;;1.36;81.11
49102;BME280;34913;47.520;19.186;2023-01-28T01:44:55;99957.47;;;1.37;81.45
49102;BME280;34913;47.520;19.186;2023-01-28T01:47:26;99968.88;;;1.36;81.51
49102;BME280;34913;47.520;19.186;2023-01-28T01:49:53;99966.09;;;1.39;81.30
49102;BME280;34913;47.520;19.186;2023-01-28T01:52:23;99972.31;;;1.37;81.31
49102;BME280;34913;47.520;19.186;2023-01-28T01:54:52;99969.97;;;1.31;81.43
49102;BME280;34913;47.520;19.186;2023-01-28T01:57:24;99969.97;;;1.31;81.98
49102;BME280;34913;47.520;19.186;2023-01-28T01:59:52;99968.09;;;1.34;81.94
49102;BME280;34913;47.520;19.186;2023-01-28T02:02:18;99963.06;;;1.30;82.01
49102;BME280;34913;47.520;19.186;2023-01-28T02:04:43;99970.06;;;1.29;81.93
49102;BME280;34913;47.520;19.186;2023-01-28T02:07:11;99968.88;;;1.36;82.35
49102;BME280;34913;47.520;19.186;2023-01-28T02:09:38;99962.56;;;1.40;82.39
49102;BME280;34913;47.520;19.186;2023-01-28T02:12:19;99968.78;;;1.38;82.17
49102;BME280;34913;47.520;19.186;2023-01-28T02:14:55;99966.59;;;1.29;82.18
49102;BME280;34913;47.520;19.186;2023-01-28T02:17:22;99964.59;;;1.34;82.58
49102;BME280;34913;47.520;19.186;2023-01-28T02:19:59;99962.78;;;1.36;82.79
49102;BME280;34913;47.520;19.186;2023-01-28T02:28:39;99956.50;;;1.59;83.07
49102;BME280;34913;47.520;19.186;2023-01-28T02:33:44;99953.66;;;1.63;82.87
49102;BME280;34913;47.520;19.186;2023-01-28T02:36:33;99956.78;;;1.53;82.63
49102;BME280;34913;47.520;19.186;2023-01-28T02:39:05;99961.09;;;1.54;82.97
49102;BME280;34913;47.520;19.186;2023-01-28T02:41:33;99958.19;;;1.60;83.15
49102;BME280;34913;47.520;19.186;2023-01-28T02:44:02;99948.44;;;1.63;83.14
49102;BME280;34913;47.520;19.186;2023-01-28T02:52:01;99967.09;;;1.56;83.09
49102;BME280;34913;47.520;19.186;2023-01-28T03:00:04;99953.81;;;1.60;83.88
49102;BME280;34913;47.520;19.186;2023-01-28T03:02:35;99956.19;;;1.65;83.75
49102;BME280;34913;47.520;19.186;2023-01-28T03:05:19;99951.97;;;1.62;83.81
49102;BME280;34913;47.520;19.186;2023-01-28T03:07:48;99960.66;;;1.63;83.86
49102;BME280;34913;47.520;19.186;2023-01-28T03:10:17;99955.44;;;1.63;83.66
49102;BME280;34913;47.520;19.186;2023-01-28T03:12:48;99954.44;;;1.65;83.87
49102;BME280;34913;47.520;19.186;2023-01-28T03:15:45;99953.59;;;1.65;83.76
49102;BME280;34913;47.520;19.186;2023-01-28T03:18:48;99950.44;;;1.58;84.30
49102;BME280;34913;47.520;19.186;2023-01-28T03:21:41;99956.28;;;1.63;84.36
49102;BME280;34913;47.520;19.186;2023-01-28T03:24:29;99948.69;;;1.57;84.22
49102;BME280;34913;47.520;19.186;2023-01-28T03:27:36;99954.75;;;1.59;84.46
49102;BME280;34913;47.520;19.186;2023-01-28T03:30:29;99956.34;;;1.62;84.37
49102;BME280;34913;47.520;19.186;2023-01-28T03:33:17;99956.78;;;1.53;84.22
49102;BME280;34913;47.520;19.186;2023-01-28T03:36:02;99964.06;;;1.46;84.62
49102;BME280;34913;47.520;19.186;2023-01-28T03:38:46;99966.75;;;1.45;84.79
49102;BME280;34913;47.520;19.186;2023-01-28T03:41:19;99971.06;;;1.46;84.86
49102;BME280;34913;47.520;19.186;2023-01-28T03:43:45;99961.59;;;1.43;84.84
49102;BME280;34913;47.520;19.186;2023-01-28T03:46:11;99971.13;;;1.44;85.04
49102;BME280;34913;47.520;19.186;2023-01-28T03:48:36;99970.47;;;1.39;85.12
49102;BME280;34913;47.520;19.186;2023-01-28T03:51:02;99968.59;;;1.43;85.72
49102;BME280;34913;47.520;19.186;2023-01-28T03:53:27;99968.38;;;1.47;85.61
49102;BME280;34913;47.520;19.186;2023-01-28T03:55:53;99964.31;;;1.40;85.82
49102;BME280;34913;47.520;19.186;2023-01-28T03:58:21;99967.88;;;1.39;86.10
49102;BME280;34913;47.520;19.186;2023-01-28T04:00:54;99964.81;;;1.48;86.57
49102;BME280;34913;47.520;19.186;2023-01-28T04:03:20;99975.09;;;1.53;86.30
49102;BME280;34913;47.520;19.186;2023-01-28T04:05:58;99970.72;;;1.53;85.94
49102;BME280;34913;47.520;19.186;2023-01-28T04:08:24;99970.06;;;1.48;85.93
49102;BME280;34913;47.520;19.186;2023-01-28T04:10:50;99967.31;;;1.51;86.15
49102;BME280;34913;47.520;19.186;2023-01-28T04:13:15;99972.41;;;1.54;86.16
49102;BME280;34913;47.520;19.186;2023-01-28T04:15:42;99975.00;;;1.54;86.16
49102;BME280;34913;47.520;19.186;2023-01-28T04:18:08;99970.72;;;1.53;86.15
49102;BME280;34913;47.520;19.186;2023-01-28T04:20:34;99972.41;;;1.54;86.31
49102;BME280;34913;47.520;19.186;2023-01-28T04:23:00;99970.56;;;1.56;86.19
49102;BME280;34913;47.520;19.186;2023-01-28T04:25:25;99975.78;;;1.56;86.24
49102;BME280;34913;47.520;19.186;2023-01-28T04:27:51;99974.75;;;1.60;86.08
49102;BME280;34913;47.520;19.186;2023-01-28T04:30:16;99979.25;;;1.57;85.82
49102;BME280;34913;47.520;19.186;2023-01-28T04:32:42;99977.47;;;1.57;86.21
49102;BME280;34913;47.520;19.186;2023-01-28T04:35:08;99975.59;;;1.61;86.35
49102;BME280;34913;47.520;19.186;2023-01-28T04:37:33;99983.44;;;1.61;86.86
49102;BME280;34913;47.520;19.186;2023-01-28T04:39:59;99984.34;;;1.60;86.71
49102;BME280;34913;47.520;19.186;2023-01-28T04:42:24;99982.50;;;1.62;86.92
49102;BME280;34913;47.520;19.186;2023-01-28T04:44:49;99996.50;;;1.61;86.97
49102;BME280;34913;47.520;19.186;2023-01-28T04:47:15;99989.66;;;1.58;87.49
49102;BME280;34913;47.520;19.186;2023-01-28T04:49:40;99986.25;;;1.56;87.40
49102;BME280;34913;47.520;19.186;2023-01-28T04:52:06;99985.41;;;1.56;87.54
49102;BME280;34913;47.520;19.186;2023-01-28T04:54:31;99989.59;;;1.60;88.15
49102;BME280;34913;47.520;19.186;2023-01-28T04:56:57;99988.44;;;1.65;88.09
49102;BME280;34913;47.520;19.186;2023-01-28T04:59:22;99998.97;;;1.64;87.92
49102;BME280;34913;47.520;19.186;2023-01-28T05:01:48;99991.00;;;1.67;88.08
49102;BME280;34913;47.520;19.186;2023-01-28T05:04:14;99995.31;;;1.68;87.49
49102;BME280;34913;47.520;19.186;2023-01-28T05:06:40;99995.09;;;1.73;87.03
49102;BME280;34913;47.520;19.186;2023-01-28T05:09:06;100000.31;;;1.73;86.82
49102;BME280;34913;47.520;19.186;2023-01-28T05:11:31;99998.50;;;1.75;86.41
49102;BME280;34913;47.520;19.186;2023-01-28T05:13:56;99999.63;;;1.69;86.37
49102;BME280;34913;47.520;19.186;2023-01-28T05:16:22;100002.31;;;1.67;86.43
49102;BME280;34913;47.520;19.186;2023-01-28T05:18:47;99999.53;;;1.71;86.25
49102;BME280;34913;47.520;19.186;2023-01-28T05:21:15;100007.41;;;1.71;85.98
49102;BME280;34913;47.520;19.186;2023-01-28T05:23:41;100009.09;;;1.72;86.38
49102;BME280;34913;47.520;19.186;2023-01-28T05:26:06;100013.41;;;1.73;86.38
49102;BME280;34913;47.520;19.186;2023-01-28T05:28:32;100014.56;;;1.67;86.18
49102;BME280;34913;47.520;19.186;2023-01-28T05:31:02;100017.38;;;1.62;86.52
49102;BME280;34913;47.520;19.186;2023-01-28T05:33:27;100011.47;;;1.57;86.39
49102;BME280;34913;47.520;19.186;2023-01-28T05:35:53;100019.28;;;1.59;86.83
49102;BME280;34913;47.520;19.186;2023-01-28T05:38:18;100014.44;;;1.50;87.12
49102;BME280;34913;47.520;19.186;2023-01-28T05:40:44;100017.41;;;1.42;87.34
49102;BME280;34913;47.520;19.186;2023-01-28T05:43:09;100025.06;;;1.47;87.62
49102;BME280;34913;47.520;19.186;2023-01-28T05:45:35;100015.44;;;1.47;87.84
49102;BME280;34913;47.520;19.186;2023-01-28T05:48:00;100024.03;;;1.51;88.23
49102;BME280;34913;47.520;19.186;2023-01-28T05:50:25;100016.94;;;1.53;88.07
49102;BME280;34913;47.520;19.186;2023-01-28T05:52:51;100028.03;;;1.58;87.89
49102;BME280;34913;47.520;19.186;2023-01-28T05:55:16;100024.53;;;1.59;87.97
49102;BME280;34913;47.520;19.186;2023-01-28T05:57:42;100035.75;;;1.61;87.97
49102;BME280;34913;47.520;19.186;2023-01-28T06:00:09;100027.31;;;1.54;87.90
49102;BME280;34913;47.520;19.186;2023-01-28T06:02:35;100030.13;;;1.50;88.17
49102;BME280;34913;47.520;19.186;2023-01-28T06:05:00;100033.97;;;1.43;88.18
49102;BME280;34913;47.520;19.186;2023-01-28T06:07:26;100037.47;;;1.42;88.78
49102;BME280;34913;47.520;19.186;2023-01-28T06:09:51;100035.50;;;1.47;88.74
49102;BME280;34913;47.520;19.186;2023-01-28T06:12:17;100052.41;;;1.39;88.73
49102;BME280;34913;47.520;19.186;2023-01-28T06:14:42;100052.94;;;1.27;89.45
49102;BME280;34913;47.520;19.186;2023-01-28T06:17:07;100061.91;;;1.22;89.83
49102;BME280;34913;47.520;19.186;2023-01-28T06:19:33;100067.06;;;1.23;90.26
49102;BME280;34913;47.520;19.186;2023-01-28T06:21:58;100059.03;;;1.28;90.21
49102;BME280;34913;47.520;19.186;2023-01-28T06:24:24;100060.56;;;1.32;90.09
49102;BME280;34913;47.520;19.186;2023-01-28T06:26:49;100061.09;;;1.40;89.73
49102;BME280;34913;47.520;19.186;2023-01-28T06:29:14;100065.28;;;1.44;89.72
49102;BME280;34913;47.520;19.186;2023-01-28T06:31:40;100074.91;;;1.44;89.40
49102;BME280;34913;47.520;19.186;2023-01-28T06:34:05;100072.31;;;1.42;89.30
49102;BME280;34913;47.520;19.186;2023-01-28T06:36:31;100070.69;;;1.39;89.75
49102;BME280;34913;47.520;19.186;2023-01-28T06:38:57;100083.00;;;1.37;89.66
49102;BME280;34913;47.520;19.186;2023-01-28T06:41:23;100083.16;;;1.34;89.99
49102;BME280;34913;47.520;19.186;2023-01-28T06:43:48;100076.00;;;1.38;89.99
49102;BME280;34913;47.520;19.186;2023-01-28T06:46:14;100084.44;;;1.45;89.94
49102;BME280;34913;47.520;19.186;2023-01-28T06:48:39;100086.13;;;1.46;89.78
49102;BME280;34913;47.520;19.186;2023-01-28T06:51:05;100091.28;;;1.47;89.10
49102;BME280;34913;47.520;19.186;2023-01-28T06:53:30;100096.34;;;1.52;88.98
49102;BME280;34913;47.520;19.186;2023-01-28T06:55:56;100095.53;;;1.50;88.64
49102;BME280;34913;47.520;19.186;2023-01-28T06:58:21;100099.53;;;1.38;87.82
49102;BME280;34913;47.520;19.186;2023-01-28T07:00:47;100098.84;;;1.34;88.28
49102;BME280;34913;47.520;19.186;2023-01-28T07:03:12;100108.50;;;1.32;88.57
49102;BME280;34913;47.520;19.186;2023-01-28T07:05:37;100105.69;;;1.37;88.88
49102;BME280;34913;47.520;19.186;2023-01-28T07:08:03;100109.16;;;1.37;88.62
49102;BME280;34913;47.520;19.186;2023-01-28T07:10:29;100115.22;;;1.38;89.16
49102;BME280;34913;47.520;19.186;2023-01-28T07:12:54;100115.41;;;1.33;89.12
49102;BME280;34913;47.520;19.186;2023-01-28T07:15:20;100124.31;;;1.29;89.85
49102;BME280;34913;47.520;19.186;2023-01-28T07:17:45;100118.25;;;1.29;90.11
49102;BME280;34913;47.520;19.186;2023-01-28T07:20:13;100125.25;;;1.28;90.54
49102;BME280;34913;47.520;19.186;2023-01-28T07:22:40;100136.34;;;1.33;90.73
49102;BME280;34913;47.520;19.186;2023-01-28T07:25:07;100131.31;;;1.29;90.87
49102;BME280;34913;47.520;19.186;2023-01-28T07:27:33;100132.09;;;1.31;90.79
49102;BME280;34913;47.520;19.186;2023-01-28T07:29:58;100122.41;;;1.33;91.21
49102;BME280;34913;47.520;19.186;2023-01-28T07:32:24;100128.50;;;1.33;91.43
49102;BME280;34913;47.520;19.186;2023-01-28T07:34:52;100127.31;;;1.40;91.95
49102;BME280;34913;47.520;19.186;2023-01-28T07:37:18;100132.44;;;1.44;92.19
49102;BME280;34913;47.520;19.186;2023-01-28T07:39:43;100138.13;;;1.53;91.78
49102;BME280;34913;47.520;19.186;2023-01-28T07:42:09;100136.41;;;1.52;91.56
49102;BME280;34913;47.520;19.186;2023-01-28T07:44:34;100134.94;;;1.65;91.62
49102;BME280;34913;47.520;19.186;2023-01-28T07:47:01;100138.94;;;1.74;91.28
49102;BME280;34913;47.520;19.186;2023-01-28T07:49:26;100137.44;;;1.68;90.80
49102;BME280;34913;47.520;19.186;2023-01-28T07:51:52;100136.66;;;1.66;90.88
49102;BME280;34913;47.520;19.186;2023-01-28T07:54:17;100144.78;;;1.60;90.90
49102;BME280;34913;47.520;19.186;2023-01-28T07:56:43;100143.88;;;1.61;91.42
49102;BME280;34913;47.520;19.186;2023-01-28T07:59:08;100142.25;;;1.59;91.27
49102;BME280;34913;47.520;19.186;2023-01-28T08:01:34;100147.31;;;1.62;91.54
49102;BME280;34913;47.520;19.186;2023-01-28T08:03:59;100140.91;;;1.49;91.24
49102;BME280;34913;47.520;19.186;2023-01-28T08:06:27;100142.31;;;1.37;92.30
49102;BME280;34913;47.520;19.186;2023-01-28T08:08:53;100145.50;;;1.44;92.56
49102;BME280;34913;47.520;19.186;2023-01-28T08:11:18;100146.34;;;1.44;92.23
49102;BME280;34913;47.520;19.186;2023-01-28T08:13:44;100151.03;;;1.56;93.15
49102;BME280;34913;47.520;19.186;2023-01-28T08:16:09;100152.63;;;1.60;92.35
49102;BME280;34913;47.520;19.186;2023-01-28T08:18:35;100153.13;;;1.48;91.52
49102;BME280;34913;47.520;19.186;2023-01-28T08:21:00;100154.31;;;1.61;92.09
49102;BME280;34913;47.520;19.186;2023-01-28T08:23:26;100150.19;;;1.76;91.67
49102;BME280;34913;47.520;19.186;2023-01-28T08:25:53;100156.59;;;1.69;90.59
49102;BME280;34913;47.520;19.186;2023-01-28T08:28:20;100148.44;;;1.56;90.47
49102;BME280;34913;47.520;19.186;2023-01-28T08:30:47;100157.00;;;1.39;90.77
49102;BME280;34913;47.520;19.186;2023-01-28T08:33:14;100158.91;;;1.36;92.06
49102;BME280;34913;47.520;19.186;2023-01-28T08:35:40;100168.09;;;1.24;92.37
49102;BME280;34913;47.520;19.186;2023-01-28T08:38:06;100163.00;;;1.21;92.74
49102;BME280;34913;47.520;19.186;2023-01-28T08:40:33;100174.47;;;1.19;93.14
49102;BME280;34913;47.520;19.186;2023-01-28T08:42:58;100165.94;;;1.34;93.08
49102;BME280;34913;47.520;19.186;2023-01-28T08:45:25;100175.53;;;1.35;92.93
49102;BME280;34913;47.520;19.186;2023-01-28T08:47:53;100178.28;;;1.52;92.71
49102;BME280;34913;47.520;19.186;2023-01-28T08:50:20;100182.25;;;1.61;92.00
49102;BME280;34913;47.520;19.186;2023-01-28T08:52:46;100184.72;;;1.64;92.18
49102;BME280;34913;47.520;19.186;2023-01-28T08:55:14;100194.03;;;1.71;90.89
49102;BME280;34913;47.520;19.186;2023-01-28T08:57:40;100183.56;;;1.71;91.60
49102;BME280;34913;47.520;19.186;2023-01-28T09:00:07;100184.72;;;1.64;91.85
49102;BME280;34913;47.520;19.186;2023-01-28T09:02:35;100189.19;;;1.62;92.72
49102;BME280;34913;47.520;19.186;2023-01-28T09:05:00;100188.00;;;1.49;91.62
49102;BME280;34913;47.520;19.186;2023-01-28T09:07:26;100188.38;;;1.39;92.90
49102;BME280;34913;47.520;19.186;2023-01-28T09:09:51;100189.31;;;1.38;93.33
49102;BME280;34913;47.520;19.186;2023-01-28T09:12:17;100202.91;;;1.47;94.40
49102;BME280;34913;47.520;19.186;2023-01-28T09:14:42;100194.81;;;1.53;93.80
49102;BME280;34913;47.520;19.186;2023-01-28T09:17:08;100201.75;;;1.54;93.76
49102;BME280;34913;47.520;19.186;2023-01-28T09:19:33;100201.59;;;1.57;93.94
49102;BME280;34913;47.520;19.186;2023-01-28T09:21:59;100206.06;;;1.55;93.57
49102;BME280;34913;47.520;19.186;2023-01-28T09:24:24;100202.44;;;1.57;93.93
49102;BME280;34913;47.520;19.186;2023-01-28T09:26:50;100207.16;;;1.49;92.85
49102;BME280;34913;47.520;19.186;2023-01-28T09:29:15;100207.38;;;1.45;92.22
49102;BME280;34913;47.520;19.186;2023-01-28T09:31:41;100206.75;;;1.38;92.84
49102;BME280;34913;47.520;19.186;2023-01-28T09:34:08;100209.56;;;1.33;93.04
49102;BME280;34913;47.520;19.186;2023-01-28T09:36:33;100211.53;;;1.49;93.51
49102;BME280;34913;47.520;19.186;2023-01-28T09:39:00;100209.19;;;1.63;93.95
49102;BME280;34913;47.520;19.186;2023-01-28T09:41:28;100208.66;;;1.55;92.44
49102;BME280;34913;47.520;19.186;2023-01-28T09:44:05;100206.91;;;1.55;93.11
49102;BME280;34913;47.520;19.186;2023-01-28T09:46:37;100205.47;;;1.68;94.73
49102;BME280;34913;47.520;19.186;2023-01-28T09:49:11;100196.97;;;1.63;92.66
49102;BME280;34913;47.520;19.186;2023-01-28T09:51:42;100197.63;;;1.68;92.65
49102;BME280;34913;47.520;19.186;2023-01-28T09:54:39;100203.31;;;1.78;92.52
49102;BME280;34913;47.520;19.186;2023-01-28T09:57:25;100201.41;;;1.82;92.92
49102;BME280;34913;47.520;19.186;2023-01-28T09:59:51;100196.75;;;1.88;92.66
49102;BME280;34913;47.520;19.186;2023-01-28T10:10:42;100202.88;;;2.08;90.63
49102;BME280;34913;47.520;19.186;2023-01-28T10:13:30;100202.91;;;2.27;92.73
49102;BME280;34913;47.520;19.186;2023-01-28T10:18:57;100189.53;;;2.70;88.39
49102;BME280;34913;47.520;19.186;2023-01-28T10:21:41;100195.13;;;2.63;86.87
49102;BME280;34913;47.520;19.186;2023-01-28T10:24:33;100191.00;;;2.76;86.26
49102;BME280;34913;47.520;19.186;2023-01-28T10:27:01;100193.78;;;2.73;86.00
49102;BME280;34913;47.520;19.186;2023-01-28T10:29:32;100186.44;;;2.62;85.33
49102;BME280;34913;47.520;19.186;2023-01-28T10:32:06;100189.97;;;2.61;86.17
49102;BME280;34913;47.520;19.186;2023-01-28T10:34:39;100195.47;;;2.74;85.71
49102;BME280;34913;47.520;19.186;2023-01-28T10:37:04;100187.13;;;2.66;85.18
49102;BME280;34913;47.520;19.186;2023-01-28T10:39:29;100198.31;;;2.69;84.69
49102;BME280;34913;47.520;19.186;2023-01-28T10:41:55;100194.41;;;2.78;84.96
49102;BME280;34913;47.520;19.186;2023-01-28T10:44:29;100193.34;;;2.82;84.72
49102;BME280;34913;47.520;19.186;2023-01-28T10:46:58;100194.28;;;2.98;85.20
49102;BME280;34913;47.520;19.186;2023-01-28T10:49:27;100195.38;;;2.94;83.01
49102;BME280;34913;47.520;19.186;2023-01-28T10:51:53;100200.06;;;2.88;84.43
49102;BME280;34913;47.520;19.186;2023-01-28T10:54:27;100194.53;;;2.75;83.86
49102;BME280;34913;47.520;19.186;2023-01-28T10:57:01;100194.56;;;2.56;83.13
49102;BME280;34913;47.520;19.186;2023-01-28T10:59:29;100199.22;;;2.68;85.27
49102;BME280;34913;47.520;19.186;2023-01-28T11:01:57;100188.16;;;2.80;84.30
49102;BME280;34913;47.520;19.186;2023-01-28T11:04:26;100184.97;;;2.93;84.00
49102;BME280;34913;47.520;19.186;2023-01-28T11:06:57;100192.22;;;3.05;83.21
49102;BME280;34913;47.520;19.186;2023-01-28T11:09:30;100196.41;;;3.09;82.94
49102;BME280;34913;47.520;19.186;2023-01-28T11:11:57;100192.16;;;3.06;81.58
49102;BME280;34913;47.520;19.186;2023-01-28T11:14:25;100184.91;;;2.94;81.14
49102;BME280;34913;47.520;19.186;2023-01-28T11:16:53;100185.28;;;3.04;81.61
49102;BME280;34913;47.520;19.186;2023-01-28T11:19:24;100179.28;;;3.02;79.49
49102;BME280;34913;47.520;19.186;2023-01-28T11:21:53;100180.06;;;3.04;78.46
49102;BME280;34913;47.520;19.186;2023-01-28T11:24:23;100179.13;;;3.05;79.34
49102;BME280;34913;47.520;19.186;2023-01-28T11:26:53;100178.47;;;3.19;78.22
49102;BME280;34913;47.520;19.186;2023-01-28T11:29:26;100174.06;;;3.19;76.89
49102;BME280;34913;47.520;19.186;2023-01-28T11:31:53;100177.25;;;3.07;77.23
49102;BME280;34913;47.520;19.186;2023-01-28T11:34:19;100176.34;;;3.08;78.29
49102;BME280;34913;47.520;19.186;2023-01-28T11:37:02;100169.88;;;3.15;77.51
49102;BME280;34913;47.520;19.186;2023-01-28T11:39:28;100174.06;;;3.19;76.58
49102;BME280;34913;47.520;19.186;2023-01-28T11:42:17;100170.97;;;3.28;77.00
49102;BME280;34913;47.520;19.186;2023-01-28T11:44:45;100167.97;;;3.36;76.26
49102;BME280;34913;47.520;19.186;2023-01-28T11:47:32;100170.97;;;3.46;75.42
49102;BME280;34913;47.520;19.186;2023-01-28T11:58:51;100161.41;;;3.45;72.81
49102;BME280;34913;47.520;19.186;2023-01-28T12:01:35;100155.47;;;3.41;73.78
49102;BME280;34913;47.520;19.186;2023-01-28T12:04:19;100154.84;;;3.53;75.17
49102;BME280;34913;47.520;19.186;2023-01-28T12:06:59;100160.84;;;3.55;73.24
49102;BME280;34913;47.520;19.186;2023-01-28T12:09:34;100156.63;;;3.86;86.20
49102;BME280;34913;47.520;19.186;2023-01-28T12:21:05;100157.94;;;3.95;72.12
49102;BME280;34913;47.520;19.186;2023-01-28T12:29:40;100148.41;;;4.09;70.34
49102;BME280;34913;47.520;19.186;2023-01-28T12:38:06;100153.63;;;3.93;67.68
49102;BME280;34913;47.520;19.186;2023-01-28T12:43:44;100157.09;;;3.94;69.58
49102;BME280;34913;47.520;19.186;2023-01-28T12:48:50;100157.63;;;4.01;70.15
49102;BME280;34913;47.520;19.186;2023-01-28T12:51:23;100158.06;;;4.09;70.20
49102;BME280;34913;47.520;19.186;2023-01-28T12:56:23;100165.78;;;4.12;69.72
49102;BME280;34913;47.520;19.186;2023-01-28T13:01:28;100170.69;;;3.85;68.26
49102;BME280;34913;47.520;19.186;2023-01-28T13:04:33;100178.66;;;3.83;69.94
49102;BME280;34913;47.520;19.186;2023-01-28T13:07:14;100173.63;;;3.79;69.40
49102;BME280;34913;47.520;19.186;2023-01-28T13:09:51;100175.28;;;3.81;69.67
49102;BME280;34913;47.520;19.186;2023-01-28T13:12:19;100182.41;;;3.79;70.35
49102;BME280;34913;47.520;19.186;2023-01-28T13:14:46;100182.97;;;3.84;70.29
49102;BME280;34913;47.520;19.186;2023-01-28T13:17:24;100178.84;;;3.80;69.11
49102;BME280;34913;47.520;19.186;2023-01-28T13:19:50;100186.63;;;3.82;68.21
49102;BME280;34913;47.520;19.186;2023-01-28T13:22:26;100185.59;;;3.84;69.01
49102;BME280;34913;47.520;19.186;2023-01-28T13:24:52;100180.13;;;3.89;67.95
49102;BME280;34913;47.520;19.186;2023-01-28T13:27:26;100187.16;;;3.88;68.71
49102;BME280;34913;47.520;19.186;2023-01-28T13:30:21;100182.44;;;3.78;68.34
49102;BME280;34913;47.520;19.186;2023-01-28T13:32:55;100185.47;;;3.87;68.65
49102;BME280;34913;47.520;19.186;2023-01-28T13:35:31;100182.66;;;3.90;68.15
49102;BME280;34913;47.520;19.186;2023-01-28T13:37:58;100180.97;;;3.89;68.00
49102;BME280;34913;47.520;19.186;2023-01-28T13:40:27;100186.38;;;3.86;68.13
49102;BME280;34913;47.520;19.186;2023-01-28T13:43:04;100196.41;;;3.78;68.13
49102;BME280;34913;47.520;19.186;2023-01-28T13:45:31;100198.16;;;3.79;69.24
49102;BME280;34913;47.520;19.186;2023-01-28T13:48:13;100196.69;;;3.74;69.21
49102;BME280;34913;47.520;19.186;2023-01-28T13:50:42;100208.47;;;3.82;67.99
49102;BME280;34913;47.520;19.186;2023-01-28T13:53:48;100206.78;;;3.81;68.31
49102;BME280;34913;47.520;19.186;2023-01-28T13:56:25;100207.72;;;3.80;68.87
49102;BME280;34913;47.520;19.186;2023-01-28T14:18:17;100216.59;;;3.95;69.30
49102;BME280;34913;47.520;19.186;2023-01-28T14:20:45;100218.72;;;3.87;68.13
49102;BME280;34913;47.520;19.186;2023-01-28T14:23:17;100222.16;;;3.89;69.09
49102;BME280;34913;47.520;19.186;2023-01-28T14:26:07;100222.28;;;3.86;68.93
49102;BME280;34913;47.520;19.186;2023-01-28T14:28:50;100225.13;;;3.99;69.99
49102;BME280;34913;47.520;19.186;2023-01-28T14:31:46;100230.63;;;3.94;70.24
49102;BME280;34913;47.520;19.186;2023-01-28T14:36:46;100229.47;;;3.82;71.86
49102;BME280;34913;47.520;19.186;2023-01-28T14:39:39;100228.72;;;3.80;71.44